Time;durP1;ratioP1;P1;durP2;ratioP2;P2;SDS_P1;SDS_P2;PMS_P1;PMS_P2;Temp;Humidity;BMP_temperature;BMP_pressure;BME280_temperature;BME280_humidity;BME280_pressure;Samples;Min_cycle;Max_cycle;Signal;HPM_P1;HPM_P2
2022/09/23 00:01:31;;;;;;;;;;;13.00;75.00;;;;;;5002983;28;19933;-68
2022/09/23 00:03:58;;;;;;;;;;;13.00;75.00;;;;;;5006789;28;19937;-69
2022/09/23 00:06:26;;;;;;;;;;;12.90;75.00;;;;;;5007515;28;19940;-69
2022/09/23 00:08:54;;;;;;;;;;;12.90;75.10;;;;;;5002113;28;20002;-69
2022/09/23 00:11:21;;;;;;;;;;;12.90;75.00;;;;;;5002856;28;19943;-70
2022/09/23 00:13:51;;;;;;;;;;;12.90;75.10;;;;;;5002852;28;19930;-69
2022/09/23 00:16:18;;;;;;;;;;;12.90;75.20;;;;;;5011153;28;20617;-69
2022/09/23 00:18:45;;;;;;;;;;;12.80;75.30;;;;;;5003510;28;19961;-69
2022/09/23 00:21:13;;;;;;;;;;;12.80;75.30;;;;;;5000883;28;19938;-69
2022/09/23 00:23:40;;;;;;;;;;;12.80;75.50;;;;;;5003546;28;19925;-69
2022/09/23 00:26:07;;;;;;;;;;;12.80;75.50;;;;;;5004331;28;19925;-69
2022/09/23 00:28:34;;;;;;;;;;;12.70;75.50;;;;;;5004209;28;19944;-69
2022/09/23 00:31:03;;;;;;;;;;;12.70;75.60;;;;;;5004034;28;19937;-69
2022/09/23 00:33:30;;;;;;;;;;;12.70;75.60;;;;;;5003251;28;19929;-69
2022/09/23 00:35:58;;;;;;;;;;;12.70;75.80;;;;;;5008537;28;20563;-69
2022/09/23 00:38:25;;;;;;;;;;;12.60;75.80;;;;;;5005675;28;19933;-68
2022/09/23 00:40:51;;;;;;;;;;;12.60;75.80;;;;;;5002569;28;19929;-69
2022/09/23 00:43:18;;;;;;;;;;;12.60;75.90;;;;;;5007166;28;19984;-69
2022/09/23 00:45:46;;;;;;;;;;;12.60;76.00;;;;;;5006416;28;19941;-69
2022/09/23 00:48:16;;;;;;;;;;;12.60;76.10;;;;;;5011486;28;20028;-69
2022/09/23 00:50:44;;;;;;;;;;;12.50;76.10;;;;;;5008325;28;19925;-69
2022/09/23 00:53:12;;;;;;;;;;;12.50;76.10;;;;;;5004200;28;21731;-68
2022/09/23 00:55:39;;;;;;;;;;;12.50;76.10;;;;;;5003043;28;19999;-68
2022/09/23 00:58:07;;;;;;;;;;;12.50;76.20;;;;;;5009066;28;20345;-69
2022/09/23 01:00:34;;;;;;;;;;;12.40;76.20;;;;;;4997538;28;19929;-68
2022/09/23 01:03:01;;;;;;;;;;;12.40;76.40;;;;;;5007131;28;20581;-68
2022/09/23 01:05:29;;;;;;;;;;;12.40;76.40;;;;;;4999437;28;20394;-68
2022/09/23 01:07:57;;;;;;;;;;;12.40;76.40;;;;;;4997049;28;19996;-69
2022/09/23 01:10:24;;;;;;;;;;;12.40;76.60;;;;;;4999287;28;20385;-68
2022/09/23 01:13:06;;;;;;;;;;;12.40;76.50;;;;;;4999429;28;20381;-69
2022/09/23 01:15:37;;;;;;;;;;;12.30;76.60;;;;;;5002414;28;19936;-68
2022/09/23 01:18:08;;;;;;;;;;;12.30;76.60;;;;;;5003929;28;19929;-68
2022/09/23 01:20:49;;;;;;;;;;;12.30;76.80;;;;;;5002110;28;19984;-68
2022/09/23 01:23:24;;;;;;;;;;;12.20;76.70;;;;;;4998383;28;19937;-68
2022/09/23 01:25:59;;;;;;;;;;;12.20;76.70;;;;;;4998017;28;19937;-68
2022/09/23 01:28:33;;;;;;;;;;;12.20;77.30;;;;;;5003002;28;19976;-68
2022/09/23 01:31:04;;;;;;;;;;;12.20;77.00;;;;;;4999797;28;19933;-69
2022/09/23 01:33:34;;;;;;;;;;;12.20;77.10;;;;;;5006734;28;20343;-71
2022/09/23 01:36:08;;;;;;;;;;;12.10;77.00;;;;;;5012083;28;20417;-70
2022/09/23 01:38:42;;;;;;;;;;;12.10;77.10;;;;;;5011904;28;19929;-71
2022/09/23 01:41:14;;;;;;;;;;;12.10;77.20;;;;;;5003511;28;20683;-71
2022/09/23 01:43:43;;;;;;;;;;;12.10;77.20;;;;;;5007567;28;20872;-71
2022/09/23 01:46:14;;;;;;;;;;;12.10;77.30;;;;;;5001104;28;19930;-71
2022/09/23 01:48:45;;;;;;;;;;;12.00;77.20;;;;;;5005655;28;19936;-70
2022/09/23 01:51:13;;;;;;;;;;;12.00;77.30;;;;;;4996680;28;20473;-71
2022/09/23 01:53:43;;;;;;;;;;;12.00;77.40;;;;;;5009045;28;20008;-71
2022/09/23 01:56:13;;;;;;;;;;;12.00;77.50;;;;;;5004883;28;20000;-70
2022/09/23 01:58:42;;;;;;;;;;;12.00;77.50;;;;;;5005618;28;19936;-70
2022/09/23 02:01:11;;;;;;;;;;;11.90;77.40;;;;;;5007602;28;19929;-70
2022/09/23 02:03:42;;;;;;;;;;;11.90;77.50;;;;;;5002663;28;19968;-70
2022/09/23 02:06:12;;;;;;;;;;;11.90;77.40;;;;;;4997522;28;19933;-71
2022/09/23 02:08:42;;;;;;;;;;;11.90;77.50;;;;;;5013511;28;19936;-70
2022/09/23 02:11:10;;;;;;;;;;;11.90;77.70;;;;;;5004184;28;19930;-71
2022/09/23 02:13:39;;;;;;;;;;;11.80;77.70;;;;;;4999102;28;19932;-71
2022/09/23 02:16:10;;;;;;;;;;;11.80;77.70;;;;;;5004699;28;19929;-71
2022/09/23 02:18:40;;;;;;;;;;;11.80;77.70;;;;;;5000550;28;20421;-71
2022/09/23 02:21:09;;;;;;;;;;;11.80;77.70;;;;;;5004352;28;19976;-70
2022/09/23 02:23:38;;;;;;;;;;;11.80;77.80;;;;;;5002578;28;19930;-70
2022/09/23 02:26:07;;;;;;;;;;;11.70;77.70;;;;;;4998757;28;20017;-71
2022/09/23 02:28:37;;;;;;;;;;;11.70;77.70;;;;;;5002248;28;19930;-70
2022/09/23 02:31:07;;;;;;;;;;;11.70;77.70;;;;;;5006833;28;19934;-71
2022/09/23 02:33:36;;;;;;;;;;;11.70;77.70;;;;;;4996860;28;19930;-71
2022/09/23 02:36:06;;;;;;;;;;;11.70;77.80;;;;;;5002186;28;19936;-71
2022/09/23 02:38:36;;;;;;;;;;;11.60;77.80;;;;;;5004252;28;19976;-70
2022/09/23 02:41:06;;;;;;;;;;;11.60;77.80;;;;;;5003666;28;20290;-70
2022/09/23 02:43:35;;;;;;;;;;;11.60;77.90;;;;;;5003043;28;19929;-71
2022/09/23 02:46:02;;;;;;;;;;;11.60;77.90;;;;;;5005302;28;19996;-70
2022/09/23 02:48:31;;;;;;;;;;;11.60;78.00;;;;;;5007010;28;19933;-70
2022/09/23 02:51:01;;;;;;;;;;;11.60;78.10;;;;;;5003527;28;19992;-71
2022/09/23 02:53:28;;;;;;;;;;;11.50;77.90;;;;;;5013573;28;20040;-70
2022/09/23 02:55:56;;;;;;;;;;;11.50;78.10;;;;;;5005561;28;19936;-70
2022/09/23 02:58:23;;;;;;;;;;;11.50;78.30;;;;;;5017611;28;20528;-69
2022/09/23 03:00:54;;;;;;;;;;;11.50;78.30;;;;;;5016122;28;19925;-70
2022/09/23 03:03:28;;;;;;;;;;;11.40;78.20;;;;;;5013358;28;19933;-70
2022/09/23 03:05:57;;;;;;;;;;;11.50;78.40;;;;;;5005003;28;19980;-69
2022/09/23 03:08:28;;;;;;;;;;;11.40;78.30;;;;;;4999693;28;19929;-70
2022/09/23 03:11:00;;;;;;;;;;;11.40;78.30;;;;;;4999111;28;19930;-69
2022/09/23 03:13:30;;;;;;;;;;;11.40;78.30;;;;;;4997126;28;19929;-69
2022/09/23 03:16:00;;;;;;;;;;;11.40;78.30;;;;;;4990754;28;20483;-69
2022/09/23 03:18:31;;;;;;;;;;;11.30;78.40;;;;;;4987423;28;19937;-70
2022/09/23 03:21:02;;;;;;;;;;;11.30;78.40;;;;;;5004517;28;19937;-70
2022/09/23 03:23:31;;;;;;;;;;;11.30;79.20;;;;;;5004348;28;19951;-70
2022/09/23 03:26:03;;;;;;;;;;;11.30;78.50;;;;;;4999566;28;19937;-69
2022/09/23 03:28:30;;;;;;;;;;;11.30;78.60;;;;;;5000045;28;20460;-69
2022/09/23 03:30:58;;;;;;;;;;;11.20;78.50;;;;;;5008356;28;19930;-70
2022/09/23 03:33:26;;;;;;;;;;;11.20;78.60;;;;;;5002694;28;20000;-69
2022/09/23 03:38:42;;;;;;;;;;;11.20;78.60;;;;;;4998434;28;20399;-70
2022/09/23 03:41:11;;;;;;;;;;;11.20;78.60;;;;;;5005438;28;19930;-70
2022/09/23 03:43:39;;;;;;;;;;;11.10;78.60;;;;;;5002212;28;19943;-70
2022/09/23 03:46:05;;;;;;;;;;;11.10;78.80;;;;;;5009795;28;19937;-70
2022/09/23 03:48:32;;;;;;;;;;;11.10;78.80;;;;;;5001358;28;19936;-70
2022/09/23 03:50:59;;;;;;;;;;;11.10;79.00;;;;;;5010791;28;19928;-69
2022/09/23 03:53:25;;;;;;;;;;;11.10;79.00;;;;;;5012056;28;19955;-70
2022/09/23 03:55:52;;;;;;;;;;;11.00;78.90;;;;;;5009259;28;19934;-70
2022/09/23 03:58:20;;;;;;;;;;;11.10;78.90;;;;;;5003109;28;19996;-70
2022/09/23 04:00:48;;;;;;;;;;;11.00;79.00;;;;;;5010498;28;19936;-70
2022/09/23 04:03:14;;;;;;;;;;;11.00;79.70;;;;;;5010016;28;20380;-70
2022/09/23 04:05:41;;;;;;;;;;;11.00;79.00;;;;;;5005415;28;19929;-68
2022/09/23 04:08:08;;;;;;;;;;;11.00;79.00;;;;;;5008291;28;19929;-70
2022/09/23 04:10:34;;;;;;;;;;;10.90;79.10;;;;;;5008986;28;19936;-70
2022/09/23 04:13:01;;;;;;;;;;;10.90;79.20;;;;;;5008896;28;20060;-71
2022/09/23 04:15:29;;;;;;;;;;;10.90;79.30;;;;;;5014667;28;19956;-70
2022/09/23 04:17:55;;;;;;;;;;;10.90;79.20;;;;;;5008426;28;19933;-70
2022/09/23 04:20:22;;;;;;;;;;;10.90;79.30;;;;;;5002389;28;20440;-70
2022/09/23 04:22:48;;;;;;;;;;;10.90;79.20;;;;;;5008272;28;19929;-70
2022/09/23 04:25:15;;;;;;;;;;;10.90;79.30;;;;;;5000831;28;19929;-70
2022/09/23 04:27:41;;;;;;;;;;;10.90;79.30;;;;;;5003042;28;19930;-71
2022/09/23 04:30:08;;;;;;;;;;;10.80;79.40;;;;;;5001910;28;20305;-70
2022/09/23 04:32:36;;;;;;;;;;;10.80;79.40;;;;;;5002699;28;19937;-70
2022/09/23 04:35:03;;;;;;;;;;;10.80;79.50;;;;;;5001689;28;19944;-71
2022/09/23 04:37:30;;;;;;;;;;;10.80;79.50;;;;;;5001936;28;19933;-70
2022/09/23 04:39:56;;;;;;;;;;;10.80;79.40;;;;;;5006961;28;19952;-69
2022/09/23 04:42:23;;;;;;;;;;;10.80;79.50;;;;;;5001927;28;20469;-70
2022/09/23 04:44:49;;;;;;;;;;;10.70;79.40;;;;;;5006339;28;20413;-70
2022/09/23 04:47:18;;;;;;;;;;;10.70;79.40;;;;;;5012485;28;19929;-69
2022/09/23 04:49:45;;;;;;;;;;;10.70;79.40;;;;;;5001294;28;19941;-70
2022/09/23 04:52:12;;;;;;;;;;;10.70;79.50;;;;;;4996454;28;19992;-70
2022/09/23 04:54:40;;;;;;;;;;;10.70;79.60;;;;;;5006873;28;19933;-70
2022/09/23 04:57:09;;;;;;;;;;;10.60;79.60;;;;;;4997484;28;19960;-70
2022/09/23 04:59:36;;;;;;;;;;;10.60;79.60;;;;;;5008937;28;20597;-71
2022/09/23 05:02:02;;;;;;;;;;;10.60;79.60;;;;;;5005215;28;20492;-69
2022/09/23 05:04:30;;;;;;;;;;;10.60;79.70;;;;;;4995515;28;19960;-70
2022/09/23 05:06:58;;;;;;;;;;;10.60;79.70;;;;;;5004819;28;19944;-69
2022/09/23 05:09:24;;;;;;;;;;;10.60;79.80;;;;;;5002284;28;19933;-70
2022/09/23 05:11:51;;;;;;;;;;;10.60;79.80;;;;;;4997037;28;20540;-70
2022/09/23 05:14:18;;;;;;;;;;;10.60;79.80;;;;;;5003934;28;19933;-70
2022/09/23 05:16:44;;;;;;;;;;;10.50;79.60;;;;;;5002703;28;19980;-70
2022/09/23 05:19:12;;;;;;;;;;;10.50;79.60;;;;;;5004179;28;19933;-70
2022/09/23 05:21:39;;;;;;;;;;;10.50;79.70;;;;;;4998686;28;20429;-70
2022/09/23 05:24:07;;;;;;;;;;;10.50;79.80;;;;;;5005303;28;20699;-69
2022/09/23 05:26:34;;;;;;;;;;;10.50;79.70;;;;;;5004166;28;19929;-70
2022/09/23 05:29:00;;;;;;;;;;;10.50;79.80;;;;;;5003268;28;19933;-71
2022/09/23 05:31:28;;;;;;;;;;;10.50;79.90;;;;;;5006792;28;19980;-70
2022/09/23 05:33:56;;;;;;;;;;;10.40;80.00;;;;;;5000644;28;19942;-69
2022/09/23 05:36:23;;;;;;;;;;;10.40;80.00;;;;;;5007626;28;19936;-70
2022/09/23 05:38:50;;;;;;;;;;;10.40;80.00;;;;;;5004946;28;20444;-70
2022/09/23 05:41:19;;;;;;;;;;;10.40;80.10;;;;;;5006307;28;20341;-69
2022/09/23 05:43:46;;;;;;;;;;;10.40;80.20;;;;;;5008903;28;19937;-70
2022/09/23 05:46:13;;;;;;;;;;;10.40;80.30;;;;;;5006752;28;19930;-70
2022/09/23 05:48:40;;;;;;;;;;;10.30;80.30;;;;;;5003818;28;20464;-71
2022/09/23 05:51:11;;;;;;;;;;;10.40;80.40;;;;;;5007094;28;20308;-70
2022/09/23 05:53:38;;;;;;;;;;;10.30;80.40;;;;;;5001004;28;19929;-70
2022/09/23 05:56:05;;;;;;;;;;;10.30;80.40;;;;;;5009166;28;19929;-70
2022/09/23 05:58:33;;;;;;;;;;;10.30;80.50;;;;;;5001063;28;19960;-71
2022/09/23 06:00:59;;;;;;;;;;;10.30;80.50;;;;;;5013758;28;20003;-69
2022/09/23 06:03:26;;;;;;;;;;;10.30;80.50;;;;;;5007533;28;20384;-70
2022/09/23 06:05:52;;;;;;;;;;;10.30;80.60;;;;;;5006247;28;19926;-69
2022/09/23 06:08:19;;;;;;;;;;;10.30;81.10;;;;;;5002714;28;20491;-68
2022/09/23 06:10:47;;;;;;;;;;;10.30;81.80;;;;;;5001113;28;20283;-69
2022/09/23 06:13:14;;;;;;;;;;;10.20;82.30;;;;;;5005593;28;19929;-70
2022/09/23 06:15:43;;;;;;;;;;;10.20;82.30;;;;;;5004964;28;19936;-67
2022/09/23 06:18:10;;;;;;;;;;;10.20;82.30;;;;;;5007702;28;20004;-69
2022/09/23 06:20:37;;;;;;;;;;;10.20;82.30;;;;;;5004302;28;19975;-67
2022/09/23 06:23:04;;;;;;;;;;;10.20;82.20;;;;;;4999613;28;20011;-69
2022/09/23 06:25:31;;;;;;;;;;;10.20;82.10;;;;;;5004220;28;20411;-69
2022/09/23 06:27:58;;;;;;;;;;;10.20;82.70;;;;;;4995418;28;19940;-69
2022/09/23 06:30:25;;;;;;;;;;;10.20;81.80;;;;;;4994729;28;19968;-69
2022/09/23 06:32:55;;;;;;;;;;;10.20;81.80;;;;;;5000221;28;19965;-69
2022/09/23 06:35:24;;;;;;;;;;;10.20;81.70;;;;;;5001587;28;20028;-69
2022/09/23 06:37:50;;;;;;;;;;;10.20;81.70;;;;;;5005321;28;20636;-69
2022/09/23 06:40:17;;;;;;;;;;;10.20;81.70;;;;;;5004345;28;19929;-67
2022/09/23 06:42:44;;;;;;;;;;;10.20;81.80;;;;;;4999491;28;19964;-69
2022/09/23 06:45:12;;;;;;;;;;;10.30;82.00;;;;;;5004825;28;19930;-69
2022/09/23 06:47:38;;;;;;;;;;;10.30;81.60;;;;;;5005120;28;19930;-69
2022/09/23 06:50:07;;;;;;;;;;;10.30;81.60;;;;;;4998524;28;19980;-70
2022/09/23 06:52:33;;;;;;;;;;;10.20;81.50;;;;;;4997184;28;19937;-70
2022/09/23 06:55:00;;;;;;;;;;;10.30;81.60;;;;;;5005051;28;20578;-70
2022/09/23 06:57:28;;;;;;;;;;;10.30;81.60;;;;;;5002200;28;19933;-71
2022/09/23 06:59:57;;;;;;;;;;;10.30;82.10;;;;;;4993747;28;19938;-72
2022/09/23 07:02:23;;;;;;;;;;;10.30;82.60;;;;;;4999978;28;19929;-72
2022/09/23 07:04:50;;;;;;;;;;;10.40;83.00;;;;;;4996277;28;20639;-72
2022/09/23 07:07:18;;;;;;;;;;;10.40;83.00;;;;;;4997596;28;20024;-72
2022/09/23 07:09:45;;;;;;;;;;;10.40;82.80;;;;;;5003361;28;19936;-72
2022/09/23 07:12:12;;;;;;;;;;;10.40;82.70;;;;;;4998756;28;20335;-72
2022/09/23 07:14:39;;;;;;;;;;;10.50;82.60;;;;;;5005532;28;19936;-72
2022/09/23 07:17:06;;;;;;;;;;;10.50;82.40;;;;;;5004869;28;19944;-72
2022/09/23 07:19:34;;;;;;;;;;;10.50;82.20;;;;;;5000446;28;19960;-72
2022/09/23 07:22:01;;;;;;;;;;;10.50;82.00;;;;;;4999540;28;19993;-72
2022/09/23 07:24:28;;;;;;;;;;;10.60;81.90;;;;;;5002369;28;19933;-72
2022/09/23 07:26:55;;;;;;;;;;;10.60;81.80;;;;;;5006042;28;20081;-72
2022/09/23 07:29:22;;;;;;;;;;;10.60;81.60;;;;;;5002002;28;20023;-72
2022/09/23 07:31:48;;;;;;;;;;;10.60;81.50;;;;;;5002082;28;20389;-71
2022/09/23 07:34:15;;;;;;;;;;;10.70;81.50;;;;;;5004342;28;19934;-72
2022/09/23 07:36:41;;;;;;;;;;;10.70;81.40;;;;;;5001366;28;19934;-72
2022/09/23 07:39:09;;;;;;;;;;;10.70;81.30;;;;;;5003837;28;19933;-72
2022/09/23 07:41:38;;;;;;;;;;;10.70;81.20;;;;;;4997793;28;19936;-72
2022/09/23 07:44:05;;;;;;;;;;;10.70;81.10;;;;;;5001680;28;20464;-72
2022/09/23 07:46:32;;;;;;;;;;;10.70;80.90;;;;;;5003423;28;19929;-73
2022/09/23 07:48:59;;;;;;;;;;;10.80;81.00;;;;;;5003747;28;19995;-72
2022/09/23 07:51:27;;;;;;;;;;;10.80;80.90;;;;;;4996799;28;19929;-72
2022/09/23 07:53:54;;;;;;;;;;;10.80;80.90;;;;;;5004729;28;20400;-71
2022/09/23 07:56:21;;;;;;;;;;;10.80;80.80;;;;;;5003262;28;19933;-72
2022/09/23 07:58:58;;;;;;;;;;;10.80;80.70;;;;;;5003490;28;19937;-72
2022/09/23 08:01:25;;;;;;;;;;;10.90;80.60;;;;;;5000351;28;19984;-69
2022/09/23 08:03:52;;;;;;;;;;;10.90;80.60;;;;;;4998432;28;19929;-71
2022/09/23 08:06:19;;;;;;;;;;;10.90;80.50;;;;;;5005512;28;19933;-72
2022/09/23 08:08:45;;;;;;;;;;;10.90;80.50;;;;;;4999899;28;19929;-71
2022/09/23 08:11:13;;;;;;;;;;;10.90;80.40;;;;;;5006862;28;19940;-72
2022/09/23 08:13:40;;;;;;;;;;;11.00;80.40;;;;;;4999897;28;19930;-70
2022/09/23 08:16:08;;;;;;;;;;;11.00;80.40;;;;;;5004894;28;19929;-71
2022/09/23 08:18:34;;;;;;;;;;;11.00;80.70;;;;;;5004141;28;19933;-71
2022/09/23 08:21:01;;;;;;;;;;;11.10;80.80;;;;;;5001843;28;19929;-71
2022/09/23 08:23:32;;;;;;;;;;;11.10;80.70;;;;;;5001178;28;19937;-71
2022/09/23 08:25:59;;;;;;;;;;;11.10;80.40;;;;;;5007643;28;19925;-71
2022/09/23 08:28:26;;;;;;;;;;;11.20;80.40;;;;;;5002374;28;19934;-71
2022/09/23 08:30:52;;;;;;;;;;;11.20;80.30;;;;;;5001737;28;19999;-71
2022/09/23 08:33:20;;;;;;;;;;;11.20;80.20;;;;;;5008810;28;20763;-71
2022/09/23 08:35:47;;;;;;;;;;;11.30;80.10;;;;;;5004182;28;19929;-71
2022/09/23 08:38:13;;;;;;;;;;;11.30;80.00;;;;;;5001744;28;19929;-70
2022/09/23 08:40:41;;;;;;;;;;;11.30;79.80;;;;;;5005825;28;20591;-71
2022/09/23 08:43:14;;;;;;;;;;;11.40;79.70;;;;;;5005140;28;19963;-70
2022/09/23 08:45:42;;;;;;;;;;;11.40;79.60;;;;;;5010474;28;20802;-70
2022/09/23 08:48:12;;;;;;;;;;;11.40;79.40;;;;;;5008021;28;19948;-70
2022/09/23 08:50:42;;;;;;;;;;;11.50;79.30;;;;;;4999270;28;19936;-71
2022/09/23 08:53:13;;;;;;;;;;;11.50;79.20;;;;;;5004045;28;20000;-71
2022/09/23 08:55:42;;;;;;;;;;;11.60;79.00;;;;;;5009795;28;19930;-71
2022/09/23 08:58:21;;;;;;;;;;;11.60;78.90;;;;;;4999323;28;19930;-71
2022/09/23 09:00:51;;;;;;;;;;;11.60;78.80;;;;;;4999010;28;19925;-71
2022/09/23 09:03:20;;;;;;;;;;;11.70;78.60;;;;;;5005750;28;19933;-71
2022/09/23 09:05:48;;;;;;;;;;;11.70;78.50;;;;;;5001881;28;19937;-70
2022/09/23 09:08:20;;;;;;;;;;;11.80;78.40;;;;;;5005795;28;20039;-70
2022/09/23 09:10:47;;;;;;;;;;;13.20;78.10;;;;;;5005579;28;19929;-68
2022/09/23 09:13:22;;;;;;;;;;;16.20;66.10;;;;;;5001904;28;19929;-69
2022/09/23 09:15:52;;;;;;;;;;;19.00;56.80;;;;;;5002210;28;19937;-72
2022/09/23 09:18:19;;;;;;;;;;;21.50;49.40;;;;;;5003803;28;19925;-69
2022/09/23 09:20:51;;;;;;;;;;;23.50;44.20;;;;;;5003958;28;19999;-69
2022/09/23 09:23:21;;;;;;;;;;;24.70;40.40;;;;;;4998572;28;20016;-69
2022/09/23 09:25:49;;;;;;;;;;;26.10;38.10;;;;;;4997619;28;19933;-68
2022/09/23 09:28:18;;;;;;;;;;;27.10;35.10;;;;;;5004799;28;20007;-70
2022/09/23 09:30:46;;;;;;;;;;;27.40;34.80;;;;;;5002434;28;19930;-70
2022/09/23 09:33:14;;;;;;;;;;;28.20;32.70;;;;;;5005050;28;19983;-69
2022/09/23 09:35:46;;;;;;;;;;;28.30;32.00;;;;;;4996053;28;20341;-69
2022/09/23 09:38:12;;;;;;;;;;;28.90;31.70;;;;;;4998197;28;19984;-70
2022/09/23 09:40:44;;;;;;;;;;;29.50;30.90;;;;;;5005206;28;19935;-70
2022/09/23 09:43:22;;;;;;;;;;;29.90;30.00;;;;;;5005694;28;20449;-70
2022/09/23 09:45:54;;;;;;;;;;;30.20;29.40;;;;;;5008642;28;20035;-72
2022/09/23 09:48:23;;;;;;;;;;;30.00;29.20;;;;;;5001791;28;19930;-72
2022/09/23 09:50:50;;;;;;;;;;;28.50;31.00;;;;;;4995181;28;19935;-72
2022/09/23 09:53:22;;;;;;;;;;;25.90;35.40;;;;;;5000389;28;19930;-72
2022/09/23 09:55:59;;;;;;;;;;;23.60;40.10;;;;;;5001075;28;19930;-71
2022/09/23 09:58:28;;;;;;;;;;;21.70;45.00;;;;;;5001692;28;19960;-70
2022/09/23 10:00:56;;;;;;;;;;;20.30;48.70;;;;;;5002698;28;19933;-70
2022/09/23 10:03:30;;;;;;;;;;;19.20;51.40;;;;;;5005376;28;19991;-69
2022/09/23 10:05:56;;;;;;;;;;;18.40;53.90;;;;;;5000140;28;19929;-71
2022/09/23 10:08:27;;;;;;;;;;;17.70;55.70;;;;;;5002646;28;19930;-72
2022/09/23 10:10:59;;;;;;;;;;;17.30;57.00;;;;;;5006225;28;19929;-71
2022/09/23 10:13:28;;;;;;;;;;;17.00;58.20;;;;;;4996881;28;20188;-71
2022/09/23 10:15:55;;;;;;;;;;;16.70;59.30;;;;;;4999192;28;19995;-71
2022/09/23 10:18:25;;;;;;;;;;;16.50;60.00;;;;;;5005505;28;19969;-70
2022/09/23 10:20:52;;;;;;;;;;;16.30;60.60;;;;;;5003447;28;20020;-72
2022/09/23 10:23:21;;;;;;;;;;;16.20;61.00;;;;;;5001767;28;20229;-72
2022/09/23 10:25:55;;;;;;;;;;;16.10;61.60;;;;;;5003436;28;20476;-71
2022/09/23 10:28:39;;;;;;;;;;;16.00;62.30;;;;;;4998861;28;19933;-71
2022/09/23 10:31:06;;;;;;;;;;;15.90;62.80;;;;;;5000774;28;19929;-71
2022/09/23 10:33:35;;;;;;;;;;;15.90;62.90;;;;;;4999065;28;19937;-72
2022/09/23 10:36:01;;;;;;;;;;;15.90;62.30;;;;;;5004901;28;19937;-72
2022/09/23 10:38:28;;;;;;;;;;;15.90;63.30;;;;;;4997745;28;19977;-71
2022/09/23 10:46:40;;;;;;;;;;;15.90;63.80;;;;;;5004569;28;19936;-72
2022/09/23 10:49:14;;;;;;;;;;;15.90;63.90;;;;;;5003255;28;19941;-73
2022/09/23 10:51:44;;;;;;;;;;;15.90;63.80;;;;;;4996513;28;19930;-72
2022/09/23 10:54:17;;;;;;;;;;;15.90;63.80;;;;;;5003162;28;19937;-71
2022/09/23 10:56:46;;;;;;;;;;;16.00;64.20;;;;;;5000909;28;19933;-71
2022/09/23 10:59:26;;;;;;;;;;;16.00;64.30;;;;;;5004303;28;19929;-71
2022/09/23 11:02:01;;;;;;;;;;;16.00;64.10;;;;;;5005468;28;19937;-72
2022/09/23 11:04:38;;;;;;;;;;;16.10;64.20;;;;;;5001497;28;19929;-71
2022/09/23 11:07:10;;;;;;;;;;;16.10;64.40;;;;;;5002671;28;20054;-71
2022/09/23 11:09:42;;;;;;;;;;;16.20;64.30;;;;;;5003658;28;20305;-71
2022/09/23 11:12:14;;;;;;;;;;;16.20;64.20;;;;;;5005292;28;19929;-71
2022/09/23 11:14:45;;;;;;;;;;;16.20;64.30;;;;;;5002339;28;19987;-71
2022/09/23 11:17:18;;;;;;;;;;;16.30;64.30;;;;;;5007613;28;19953;-71
2022/09/23 11:20:07;;;;;;;;;;;16.30;64.90;;;;;;4999145;28;19934;-72
2022/09/23 11:22:42;;;;;;;;;;;16.40;64.10;;;;;;4989494;28;19926;-71
2022/09/23 11:25:30;;;;;;;;;;;16.40;63.90;;;;;;5003468;28;19974;-71
2022/09/23 11:28:05;;;;;;;;;;;16.50;63.90;;;;;;5001226;28;20048;-70
2022/09/23 11:30:38;;;;;;;;;;;16.50;63.90;;;;;;4996754;28;19945;-71
2022/09/23 11:33:25;;;;;;;;;;;16.60;62.90;;;;;;5001879;28;20469;-72
2022/09/23 11:35:54;;;;;;;;;;;16.60;63.30;;;;;;5003956;28;19929;-71
2022/09/23 11:38:25;;;;;;;;;;;16.70;63.30;;;;;;5003161;28;20057;-71
2022/09/23 11:40:53;;;;;;;;;;;16.80;63.40;;;;;;5001380;28;19933;-72
2022/09/23 11:43:22;;;;;;;;;;;16.80;63.30;;;;;;5000100;28;20505;-71
2022/09/23 11:45:53;;;;;;;;;;;16.80;63.20;;;;;;5006770;28;19933;-72
2022/09/23 11:48:24;;;;;;;;;;;16.90;63.40;;;;;;5009206;28;19932;-72
2022/09/23 11:50:55;;;;;;;;;;;16.90;63.40;;;;;;5007231;28;19973;-71
2022/09/23 11:53:23;;;;;;;;;;;17.00;63.30;;;;;;5005649;28;20390;-69
2022/09/23 11:55:52;;;;;;;;;;;17.10;62.50;;;;;;5007372;28;20011;-69
2022/09/23 11:58:20;;;;;;;;;;;17.10;63.00;;;;;;5011205;28;19933;-69
2022/09/23 12:00:51;;;;;;;;;;;17.20;62.10;;;;;;5008522;28;19933;-69
2022/09/23 12:03:22;;;;;;;;;;;17.20;61.70;;;;;;5006969;28;19941;-69
2022/09/23 12:05:52;;;;;;;;;;;17.40;61.20;;;;;;5003484;28;19980;-69
2022/09/23 12:08:25;;;;;;;;;;;17.50;61.90;;;;;;5005418;28;20649;-68
2022/09/23 12:10:56;;;;;;;;;;;17.60;61.80;;;;;;5003530;28;19929;-69
2022/09/23 12:13:26;;;;;;;;;;;17.60;61.90;;;;;;5004351;28;20052;-68
2022/09/23 12:16:03;;;;;;;;;;;17.60;61.80;;;;;;4995375;28;19929;-69
2022/09/23 12:18:41;;;;;;;;;;;17.60;62.00;;;;;;5004245;28;19983;-68
2022/09/23 12:21:18;;;;;;;;;;;17.60;61.50;;;;;;5009069;28;20049;-69
2022/09/23 12:23:52;;;;;;;;;;;17.60;61.60;;;;;;5001800;28;19929;-70
2022/09/23 12:26:20;;;;;;;;;;;17.70;61.20;;;;;;5006959;28;19929;-70
2022/09/23 12:28:48;;;;;;;;;;;17.70;61.20;;;;;;4996023;28;19985;-70
2022/09/23 12:31:15;;;;;;;;;;;17.70;61.40;;;;;;5003747;28;19929;-70
2022/09/23 12:33:49;;;;;;;;;;;17.70;61.60;;;;;;5006479;28;19929;-70
2022/09/23 12:36:16;;;;;;;;;;;17.80;61.70;;;;;;5009359;28;20369;-70
2022/09/23 12:38:47;;;;;;;;;;;17.80;61.80;;;;;;5009428;28;20435;-70
2022/09/23 12:41:24;;;;;;;;;;;17.90;61.70;;;;;;5008709;28;19929;-70
2022/09/23 12:43:53;;;;;;;;;;;17.90;61.90;;;;;;5003503;28;19937;-70
2022/09/23 12:46:24;;;;;;;;;;;17.90;61.70;;;;;;5006025;28;19929;-69
2022/09/23 12:49:02;;;;;;;;;;;17.90;61.40;;;;;;5002143;28;20425;-69
2022/09/23 12:51:29;;;;;;;;;;;18.00;60.90;;;;;;4999768;28;19936;-69
2022/09/23 12:53:57;;;;;;;;;;;17.90;61.70;;;;;;5011249;28;19933;-69
2022/09/23 12:56:25;;;;;;;;;;;18.00;61.80;;;;;;5005600;28;19940;-68
2022/09/23 12:59:20;;;;;;;;;;;18.00;61.70;;;;;;5010320;28;19929;-69
2022/09/23 13:01:46;;;;;;;;;;;18.00;61.70;;;;;;5012025;28;20429;-70
2022/09/23 13:07:22;;;;;;;;;;;18.10;60.30;;;;;;4998765;28;19940;-70
2022/09/23 13:09:50;;;;;;;;;;;18.20;61.10;;;;;;5004670;28;19929;-69
2022/09/23 13:12:19;;;;;;;;;;;18.20;61.10;;;;;;4998222;28;19936;-69
2022/09/23 13:14:48;;;;;;;;;;;18.20;61.10;;;;;;4997818;28;20357;-70
2022/09/23 13:17:23;;;;;;;;;;;18.30;61.50;;;;;;5006065;28;19937;-70
2022/09/23 13:19:57;;;;;;;;;;;18.30;60.50;;;;;;5005674;28;19925;-69
2022/09/23 13:22:40;;;;;;;;;;;18.30;59.30;;;;;;5001834;28;20048;-69
2022/09/23 13:25:10;;;;;;;;;;;18.30;60.30;;;;;;5000252;28;20580;-70
2022/09/23 13:27:37;;;;;;;;;;;18.40;60.30;;;;;;5003886;28;20690;-68
2022/09/23 13:30:06;;;;;;;;;;;18.30;60.30;;;;;;4999994;28;19929;-69
2022/09/23 13:32:34;;;;;;;;;;;18.40;60.80;;;;;;5002087;28;19961;-69
2022/09/23 13:35:03;;;;;;;;;;;18.30;60.30;;;;;;5006813;28;19933;-70
2022/09/23 13:37:32;;;;;;;;;;;18.40;60.50;;;;;;5009458;28;19972;-70
2022/09/23 13:40:09;;;;;;;;;;;18.40;61.00;;;;;;5001002;28;19956;-69
2022/09/23 13:42:38;;;;;;;;;;;18.40;61.10;;;;;;4998169;28;20024;-70
2022/09/23 13:45:05;;;;;;;;;;;18.30;61.10;;;;;;5002385;28;19935;-70
2022/09/23 13:47:33;;;;;;;;;;;18.40;61.30;;;;;;5008006;28;19933;-70
2022/09/23 13:50:00;;;;;;;;;;;18.30;61.20;;;;;;4999420;28;19929;-69
2022/09/23 13:52:30;;;;;;;;;;;18.30;60.90;;;;;;5001659;28;19936;-69
2022/09/23 13:54:57;;;;;;;;;;;18.30;61.30;;;;;;5000975;28;19932;-70
2022/09/23 13:57:26;;;;;;;;;;;18.30;61.20;;;;;;5003648;28;19937;-70
2022/09/23 13:59:53;;;;;;;;;;;18.30;61.50;;;;;;5000520;28;20357;-70
2022/09/23 14:02:24;;;;;;;;;;;18.30;61.30;;;;;;5003337;28;21551;-69
2022/09/23 14:04:51;;;;;;;;;;;18.30;61.70;;;;;;5002805;28;19995;-70
2022/09/23 14:07:19;;;;;;;;;;;18.30;61.90;;;;;;4996788;28;19980;-70
2022/09/23 14:09:48;;;;;;;;;;;18.30;61.90;;;;;;5002006;28;20473;-69
2022/09/23 14:12:20;;;;;;;;;;;18.30;61.40;;;;;;5006264;28;19937;-70
2022/09/23 14:14:48;;;;;;;;;;;18.30;61.50;;;;;;5000829;28;19929;-70
2022/09/23 14:17:17;;;;;;;;;;;18.30;61.90;;;;;;5008114;28;19933;-70
2022/09/23 14:19:43;;;;;;;;;;;18.30;62.10;;;;;;5006704;28;19968;-69
2022/09/23 14:22:22;;;;;;;;;;;18.30;62.20;;;;;;4995037;28;19984;-70
2022/09/23 14:24:50;;;;;;;;;;;18.30;61.80;;;;;;5013129;28;19936;-70
2022/09/23 14:27:18;;;;;;;;;;;18.30;61.70;;;;;;5003002;28;20295;-71
2022/09/23 14:29:46;;;;;;;;;;;18.40;61.50;;;;;;5005762;28;19936;-69
2022/09/23 14:32:15;;;;;;;;;;;18.40;61.60;;;;;;5005464;28;19930;-70
2022/09/23 14:34:43;;;;;;;;;;;18.50;61.70;;;;;;5013839;28;19936;-70
2022/09/23 14:39:58;;;;;;;;;;;18.50;61.60;;;;;;4995041;28;20456;-67
2022/09/23 14:42:26;;;;;;;;;;;18.50;61.50;;;;;;5007444;28;20327;-68